sensor_id;sensor_type;location;lat;lon;timestamp;pressure;altitude;pressure_sealevel;temperature;humidity
20119;BME280;10220;42.716;23.306;2023-01-10T00:00:07;94478.31;;;3.66;100.00
20119;BME280;10220;42.716;23.306;2023-01-10T00:02:32;94550.78;;;3.81;100.00
20119;BME280;10220;42.716;23.306;2023-01-10T00:04:58;94529.88;;;3.77;100.00
20119;BME280;10220;42.716;23.306;2023-01-10T00:07:23;94533.75;;;3.59;100.00
20119;BME280;10220;42.716;23.306;2023-01-10T00:09:48;94546.72;;;3.72;100.00
20119;BME280;10220;42.716;23.306;2023-01-10T00:12:14;94522.81;;;3.65;100.00
20119;BME280;10220;42.716;23.306;2023-01-10T00:14:58;94516.19;;;3.56;100.00
20119;BME280;10220;42.716;23.306;2023-01-10T00:17:24;94517.06;;;3.63;100.00
20119;BME280;10220;42.716;23.306;2023-01-10T00:19:49;94520.88;;;3.67;100.00
20119;BME280;10220;42.716;23.306;2023-01-10T00:22:14;94502.25;;;3.58;100.00
20119;BME280;10220;42.716;23.306;2023-01-10T00:24:42;94506.06;;;3.62;100.00
20119;BME280;10220;42.716;23.306;2023-01-10T00:27:08;94508.69;;;3.69;100.00
20119;BME280;10220;42.716;23.306;2023-01-10T00:29:35;94519.34;;;3.72;100.00
20119;BME280;10220;42.716;23.306;2023-01-10T00:32:00;94489.47;;;3.58;100.00
20119;BME280;10220;42.716;23.306;2023-01-10T00:34:25;94506.47;;;3.66;100.00
20119;BME280;10220;42.716;23.306;2023-01-10T00:36:51;94512.31;;;3.60;100.00
20119;BME280;10220;42.716;23.306;2023-01-10T00:39:17;94486.63;;;3.68;100.00
20119;BME280;10220;42.716;23.306;2023-01-10T00:41:45;94462.78;;;3.53;100.00
20119;BME280;10220;42.716;23.306;2023-01-10T00:44:29;94480.16;;;3.72;100.00
20119;BME280;10220;42.716;23.306;2023-01-10T00:46:55;94506.47;;;3.66;100.00
20119;BME280;10220;42.716;23.306;2023-01-10T00:49:20;94427.19;;;3.72;100.00
20119;BME280;10220;42.716;23.306;2023-01-10T00:51:46;94493.22;;;3.77;100.00
20119;BME280;10220;42.716;23.306;2023-01-10T00:54:12;94446.63;;;3.67;100.00
20119;BME280;10220;42.716;23.306;2023-01-10T00:56:38;94508.59;;;3.77;100.00
20119;BME280;10220;42.716;23.306;2023-01-10T00:59:04;94500.47;;;3.73;100.00
20119;BME280;10220;42.716;23.306;2023-01-10T01:01:30;94495.78;;;3.77;100.00
20119;BME280;10220;42.716;23.306;2023-01-10T01:03:56;94476.16;;;3.84;100.00
20119;BME280;10220;42.716;23.306;2023-01-10T01:06:23;94453.53;;;3.66;100.00
20119;BME280;10220;42.716;23.306;2023-01-10T01:08:49;94386.75;;;3.47;100.00
20119;BME280;10220;42.716;23.306;2023-01-10T01:11:14;94482.53;;;3.73;100.00
20119;BME280;10220;42.716;23.306;2023-01-10T01:13:40;94451.13;;;3.79;100.00
20119;BME280;10220;42.716;23.306;2023-01-10T01:16:05;94472.66;;;3.85;100.00
20119;BME280;10220;42.716;23.306;2023-01-10T01:18:31;94477.78;;;3.85;100.00
20119;BME280;10220;42.716;23.306;2023-01-10T01:20:57;94464.53;;;3.81;100.00
20119;BME280;10220;42.716;23.306;2023-01-10T01:23:25;94493.84;;;3.79;100.00
20119;BME280;10220;42.716;23.306;2023-01-10T01:25:54;94432.50;;;3.71;100.00
20119;BME280;10220;42.716;23.306;2023-01-10T01:28:20;94425.66;;;3.78;100.00
20119;BME280;10220;42.716;23.306;2023-01-10T01:30:49;94451.47;;;3.76;100.00
20119;BME280;10220;42.716;23.306;2023-01-10T01:33:15;94473.72;;;3.76;100.00
20119;BME280;10220;42.716;23.306;2023-01-10T01:35:42;94419.69;;;3.71;100.00
20119;BME280;10220;42.716;23.306;2023-01-10T01:38:07;94502.06;;;3.74;100.00
20119;BME280;10220;42.716;23.306;2023-01-10T01:40:33;94453.19;;;3.90;100.00
20119;BME280;10220;42.716;23.306;2023-01-10T01:42:58;94469.03;;;3.79;100.00
20119;BME280;10220;42.716;23.306;2023-01-10T01:45:34;94403.69;;;3.83;100.00
20119;BME280;10220;42.716;23.306;2023-01-10T01:56:10;94473.50;;;3.92;100.00
20119;BME280;10220;42.716;23.306;2023-01-10T01:58:53;94434.50;;;3.90;100.00
20119;BME280;10220;42.716;23.306;2023-01-10T02:01:21;94387.25;;;3.92;100.00
20119;BME280;10220;42.716;23.306;2023-01-10T02:03:50;94442.09;;;3.83;100.00
20119;BME280;10220;42.716;23.306;2023-01-10T02:06:19;94445.06;;;3.87;100.00
20119;BME280;10220;42.716;23.306;2023-01-10T02:08:51;94420.22;;;4.02;100.00
20119;BME280;10220;42.716;23.306;2023-01-10T02:11:19;94451.16;;;4.00;100.00
20119;BME280;10220;42.716;23.306;2023-01-10T02:13:45;94415.94;;;4.08;100.00
20119;BME280;10220;42.716;23.306;2023-01-10T02:16:12;94435.59;;;4.02;100.00
20119;BME280;10220;42.716;23.306;2023-01-10T02:18:38;94353.69;;;3.66;100.00
20119;BME280;10220;42.716;23.306;2023-01-10T02:32:09;94381.81;;;4.02;100.00
20119;BME280;10220;42.716;23.306;2023-01-10T02:43:13;94382.84;;;4.07;100.00
20119;BME280;10220;42.716;23.306;2023-01-10T02:45:56;94382.00;;;4.00;100.00
20119;BME280;10220;42.716;23.306;2023-01-10T02:48:23;94376.50;;;4.03;100.00
20119;BME280;10220;42.716;23.306;2023-01-10T02:50:53;94422.72;;;3.95;100.00
20119;BME280;10220;42.716;23.306;2023-01-10T02:55:58;94390.72;;;4.06;100.00
20119;BME280;10220;42.716;23.306;2023-01-10T03:04:33;94424.31;;;4.17;100.00
20119;BME280;10220;42.716;23.306;2023-01-10T03:07:24;94408.66;;;4.26;100.00
20119;BME280;10220;42.716;23.306;2023-01-10T03:10:02;94398.78;;;4.23;100.00
20119;BME280;10220;42.716;23.306;2023-01-10T03:15:18;94399.22;;;4.33;100.00
20119;BME280;10220;42.716;23.306;2023-01-10T03:17:51;94439.25;;;4.34;100.00
20119;BME280;10220;42.716;23.306;2023-01-10T03:20:20;94401.00;;;4.33;100.00
20119;BME280;10220;42.716;23.306;2023-01-10T03:22:47;94423.88;;;4.34;100.00
20119;BME280;10220;42.716;23.306;2023-01-10T03:25:15;94418.31;;;4.31;100.00
20119;BME280;10220;42.716;23.306;2023-01-10T03:27:59;94402.41;;;4.35;100.00
20119;BME280;10220;42.716;23.306;2023-01-10T03:30:47;94426.44;;;4.34;100.00
20119;BME280;10220;42.716;23.306;2023-01-10T03:33:18;94415.75;;;4.31;100.00
20119;BME280;10220;42.716;23.306;2023-01-10T03:36:22;94399.09;;;4.41;100.00
20119;BME280;10220;42.716;23.306;2023-01-10T03:39:06;94415.16;;;4.50;100.00
20119;BME280;10220;42.716;23.306;2023-01-10T03:41:38;94407.78;;;4.40;100.00
20119;BME280;10220;42.716;23.306;2023-01-10T03:47:24;94405.22;;;4.40;100.00
20119;BME280;10220;42.716;23.306;2023-01-10T03:49:58;94389.41;;;4.37;100.00
20119;BME280;10220;42.716;23.306;2023-01-10T03:52:25;94394.22;;;4.46;100.00
20119;BME280;10220;42.716;23.306;2023-01-10T03:54:51;94389.91;;;4.47;100.00
20119;BME280;10220;42.716;23.306;2023-01-10T03:57:21;94391.06;;;4.44;100.00
20119;BME280;10220;42.716;23.306;2023-01-10T03:59:53;94368.63;;;4.53;100.00
20119;BME280;10220;42.716;23.306;2023-01-10T04:02:20;94346.88;;;4.42;100.00
20119;BME280;10220;42.716;23.306;2023-01-10T04:04:45;94333.22;;;4.35;100.00
20119;BME280;10220;42.716;23.306;2023-01-10T04:07:10;94331.19;;;4.31;100.00
20119;BME280;10220;42.716;23.306;2023-01-10T04:09:36;94305.13;;;4.21;100.00
20119;BME280;10220;42.716;23.306;2023-01-10T04:12:02;94309.81;;;4.17;100.00
20119;BME280;10220;42.716;23.306;2023-01-10T04:14:27;94251.72;;;3.97;100.00
20119;BME280;10220;42.716;23.306;2023-01-10T04:16:53;94291.97;;;4.30;100.00
20119;BME280;10220;42.716;23.306;2023-01-10T04:19:19;94265.63;;;4.15;100.00
20119;BME280;10220;42.716;23.306;2023-01-10T04:21:44;94338.53;;;4.34;100.00
20119;BME280;10220;42.716;23.306;2023-01-10T04:24:10;94305.06;;;4.14;100.00
20119;BME280;10220;42.716;23.306;2023-01-10T04:26:35;94373.06;;;4.38;100.00
20119;BME280;10220;42.716;23.306;2023-01-10T04:29:01;94348.97;;;4.11;100.00
20119;BME280;10220;42.716;23.306;2023-01-10T04:31:26;94393.31;;;4.33;100.00
20119;BME280;10220;42.716;23.306;2023-01-10T04:33:52;94403.75;;;4.52;100.00
20119;BME280;10220;42.716;23.306;2023-01-10T04:36:17;94381.50;;;4.59;100.00
20119;BME280;10220;42.716;23.306;2023-01-10T04:38:42;94404.56;;;4.59;100.00
20119;BME280;10220;42.716;23.306;2023-01-10T04:41:08;94396.97;;;4.45;100.00
20119;BME280;10220;42.716;23.306;2023-01-10T04:43:34;94420.38;;;4.63;100.00
20119;BME280;10220;42.716;23.306;2023-01-10T04:45:59;94398.91;;;4.64;100.00
20119;BME280;10220;42.716;23.306;2023-01-10T04:48:25;94434.22;;;4.68;100.00
20119;BME280;10220;42.716;23.306;2023-01-10T04:50:52;94373.06;;;4.65;100.00
20119;BME280;10220;42.716;23.306;2023-01-10T04:53:18;94343.22;;;4.58;100.00
20119;BME280;10220;42.716;23.306;2023-01-10T04:55:44;94346.81;;;4.63;100.00
20119;BME280;10220;42.716;23.306;2023-01-10T04:58:09;94373.06;;;4.65;100.00
20119;BME280;10220;42.716;23.306;2023-01-10T05:00:36;94378.69;;;4.54;100.00
20119;BME280;10220;42.716;23.306;2023-01-10T05:03:02;94370.47;;;4.59;100.00
20119;BME280;10220;42.716;23.306;2023-01-10T05:05:27;94368.34;;;4.68;100.00
20119;BME280;10220;42.716;23.306;2023-01-10T05:07:53;94333.91;;;4.50;100.00
20119;BME280;10220;42.716;23.306;2023-01-10T05:10:18;94375.31;;;4.74;100.00
20119;BME280;10220;42.716;23.306;2023-01-10T05:12:44;94356.56;;;4.74;100.00
20119;BME280;10220;42.716;23.306;2023-01-10T05:15:10;94363.06;;;4.76;100.00
20119;BME280;10220;42.716;23.306;2023-01-10T05:17:36;94355.94;;;4.72;100.00
20119;BME280;10220;42.716;23.306;2023-01-10T05:20:01;94345.31;;;4.75;100.00
20119;BME280;10220;42.716;23.306;2023-01-10T05:22:27;94356.59;;;4.80;100.00
20119;BME280;10220;42.716;23.306;2023-01-10T05:24:52;94318.25;;;4.72;100.00
20119;BME280;10220;42.716;23.306;2023-01-10T05:27:18;94359.38;;;4.85;100.00
20119;BME280;10220;42.716;23.306;2023-01-10T05:29:43;94322.22;;;4.75;100.00
20119;BME280;10220;42.716;23.306;2023-01-10T05:32:08;94347.41;;;4.92;100.00
20119;BME280;10220;42.716;23.306;2023-01-10T05:34:34;94347.72;;;4.83;100.00
20119;BME280;10220;42.716;23.306;2023-01-10T05:36:59;94350.28;;;4.83;100.00
20119;BME280;10220;42.716;23.306;2023-01-10T05:39:25;94358.91;;;4.69;100.00
20119;BME280;10220;42.716;23.306;2023-01-10T05:41:50;94311.59;;;4.44;100.00
20119;BME280;10220;42.716;23.306;2023-01-10T05:44:16;94322.97;;;4.63;100.00
20119;BME280;10220;42.716;23.306;2023-01-10T05:46:41;94377.09;;;5.08;100.00
20119;BME280;10220;42.716;23.306;2023-01-10T05:49:06;94399.09;;;4.96;100.00
20119;BME280;10220;42.716;23.306;2023-01-10T05:51:32;94379.59;;;4.95;100.00
20119;BME280;10220;42.716;23.306;2023-01-10T05:53:57;94352.38;;;5.00;100.00
20119;BME280;10220;42.716;23.306;2023-01-10T05:56:23;94362.72;;;5.13;100.00
20119;BME280;10220;42.716;23.306;2023-01-10T05:58:49;94350.63;;;5.07;100.00
20119;BME280;10220;42.716;23.306;2023-01-10T06:01:15;94336.09;;;4.87;100.00
20119;BME280;10220;42.716;23.306;2023-01-10T06:03:40;94361.19;;;4.91;100.00
20119;BME280;10220;42.716;23.306;2023-01-10T06:06:06;94361.06;;;4.99;100.00
20119;BME280;10220;42.716;23.306;2023-01-10T06:08:32;94366.47;;;5.17;100.00
20119;BME280;10220;42.716;23.306;2023-01-10T06:10:57;94375.75;;;5.12;100.00
20119;BME280;10220;42.716;23.306;2023-01-10T06:13:23;94368.19;;;5.10;100.00
20119;BME280;10220;42.716;23.306;2023-01-10T06:15:48;94377.28;;;5.13;100.00
20119;BME280;10220;42.716;23.306;2023-01-10T06:18:14;94374.50;;;5.01;100.00
20119;BME280;10220;42.716;23.306;2023-01-10T06:20:41;94367.78;;;5.00;100.00
20119;BME280;10220;42.716;23.306;2023-01-10T06:23:07;94376.47;;;5.06;100.00
20119;BME280;10220;42.716;23.306;2023-01-10T06:25:34;94363.72;;;4.85;100.00
20119;BME280;10220;42.716;23.306;2023-01-10T06:28:02;94377.50;;;5.11;100.00
20119;BME280;10220;42.716;23.306;2023-01-10T06:30:28;94375.88;;;5.04;100.00
20119;BME280;10220;42.716;23.306;2023-01-10T06:32:53;94340.03;;;4.83;100.00
20119;BME280;10220;42.716;23.306;2023-01-10T06:35:18;94355.75;;;5.07;100.00
20119;BME280;10220;42.716;23.306;2023-01-10T06:37:44;94361.59;;;5.28;100.00
20119;BME280;10220;42.716;23.306;2023-01-10T06:40:10;94371.31;;;5.39;100.00
20119;BME280;10220;42.716;23.306;2023-01-10T06:42:35;94367.91;;;5.26;100.00
20119;BME280;10220;42.716;23.306;2023-01-10T06:45:01;94378.66;;;4.75;100.00
20119;BME280;10220;42.716;23.306;2023-01-10T06:47:27;94369.69;;;4.92;100.00
20119;BME280;10220;42.716;23.306;2023-01-10T06:49:52;94368.03;;;4.78;100.00
20119;BME280;10220;42.716;23.306;2023-01-10T06:52:18;94370.69;;;4.97;100.00
20119;BME280;10220;42.716;23.306;2023-01-10T06:54:44;94369.81;;;5.18;100.00
20119;BME280;10220;42.716;23.306;2023-01-10T06:57:09;94372.84;;;5.27;100.00
20119;BME280;10220;42.716;23.306;2023-01-10T06:59:35;94363.31;;;5.22;100.00
20119;BME280;10220;42.716;23.306;2023-01-10T07:02:00;94313.00;;;4.87;100.00
20119;BME280;10220;42.716;23.306;2023-01-10T07:04:26;94345.34;;;5.15;100.00
20119;BME280;10220;42.716;23.306;2023-01-10T07:06:52;94347.78;;;5.36;100.00
20119;BME280;10220;42.716;23.306;2023-01-10T07:09:17;94343.81;;;5.33;100.00
20119;BME280;10220;42.716;23.306;2023-01-10T07:11:43;94334.72;;;5.31;100.00
20119;BME280;10220;42.716;23.306;2023-01-10T07:14:08;94319.66;;;5.15;100.00
20119;BME280;10220;42.716;23.306;2023-01-10T07:16:34;94338.34;;;5.43;100.00
20119;BME280;10220;42.716;23.306;2023-01-10T07:19:00;94336.28;;;5.25;100.00
20119;BME280;10220;42.716;23.306;2023-01-10T07:21:26;94316.69;;;5.05;100.00
20119;BME280;10220;42.716;23.306;2023-01-10T07:23:52;94299.72;;;5.11;100.00
20119;BME280;10220;42.716;23.306;2023-01-10T07:26:18;94285.84;;;4.92;100.00
20119;BME280;10220;42.716;23.306;2023-01-10T07:28:44;94334.09;;;5.16;100.00
20119;BME280;10220;42.716;23.306;2023-01-10T07:31:12;94329.53;;;5.12;100.00
20119;BME280;10220;42.716;23.306;2023-01-10T07:33:38;94329.75;;;5.17;100.00
20119;BME280;10220;42.716;23.306;2023-01-10T07:36:04;94319.47;;;5.17;100.00
20119;BME280;10220;42.716;23.306;2023-01-10T07:38:30;94303.84;;;5.05;100.00
20119;BME280;10220;42.716;23.306;2023-01-10T07:40:56;94327.41;;;5.22;100.00
20119;BME280;10220;42.716;23.306;2023-01-10T07:43:21;94331.59;;;5.29;100.00
20119;BME280;10220;42.716;23.306;2023-01-10T07:45:46;94305.25;;;5.14;100.00
20119;BME280;10220;42.716;23.306;2023-01-10T07:48:12;94329.97;;;5.22;100.00
20119;BME280;10220;42.716;23.306;2023-01-10T07:50:38;94301.91;;;5.14;100.00
20119;BME280;10220;42.716;23.306;2023-01-10T07:53:05;94280.59;;;5.13;100.00
20119;BME280;10220;42.716;23.306;2023-01-10T07:55:32;94294.97;;;5.01;100.00
20119;BME280;10220;42.716;23.306;2023-01-10T07:57:59;94291.22;;;5.10;100.00
20119;BME280;10220;42.716;23.306;2023-01-10T08:00:25;94311.63;;;5.18;100.00
20119;BME280;10220;42.716;23.306;2023-01-10T08:02:54;94307.00;;;5.07;100.00
20119;BME280;10220;42.716;23.306;2023-01-10T08:05:21;94309.78;;;5.06;100.00
20119;BME280;10220;42.716;23.306;2023-01-10T08:07:47;94309.59;;;5.14;100.00
20119;BME280;10220;42.716;23.306;2023-01-10T08:10:13;94268.84;;;4.91;100.00
20119;BME280;10220;42.716;23.306;2023-01-10T08:12:38;94313.16;;;5.19;100.00
20119;BME280;10220;42.716;23.306;2023-01-10T08:15:04;94317.50;;;5.12;100.00
20119;BME280;10220;42.716;23.306;2023-01-10T08:17:34;94294.19;;;5.14;100.00
20119;BME280;10220;42.716;23.306;2023-01-10T08:20:00;94310.38;;;5.14;100.00
20119;BME280;10220;42.716;23.306;2023-01-10T08:22:25;94273.22;;;4.97;100.00
20119;BME280;10220;42.716;23.306;2023-01-10T08:24:50;94304.91;;;5.23;100.00
20119;BME280;10220;42.716;23.306;2023-01-10T08:27:16;94289.66;;;5.09;100.00
20119;BME280;10220;42.716;23.306;2023-01-10T08:29:41;94286.94;;;5.17;100.00
20119;BME280;10220;42.716;23.306;2023-01-10T08:32:07;94244.22;;;4.97;100.00
20119;BME280;10220;42.716;23.306;2023-01-10T08:34:33;94266.94;;;5.13;100.00
20119;BME280;10220;42.716;23.306;2023-01-10T08:36:59;94256.81;;;4.92;100.00
20119;BME280;10220;42.716;23.306;2023-01-10T08:39:24;94257.59;;;4.86;100.00
20119;BME280;10220;42.716;23.306;2023-01-10T08:41:52;94245.47;;;4.67;100.00
20119;BME280;10220;42.716;23.306;2023-01-10T08:44:18;94262.94;;;4.91;100.00
20119;BME280;10220;42.716;23.306;2023-01-10T08:46:44;94273.75;;;4.86;100.00
20119;BME280;10220;42.716;23.306;2023-01-10T08:49:09;94251.81;;;4.77;100.00
20119;BME280;10220;42.716;23.306;2023-01-10T08:51:35;94248.66;;;4.75;100.00
20119;BME280;10220;42.716;23.306;2023-01-10T08:54:01;94230.13;;;4.80;100.00
20119;BME280;10220;42.716;23.306;2023-01-10T08:56:26;94249.09;;;4.85;100.00
20119;BME280;10220;42.716;23.306;2023-01-10T08:58:52;94253.84;;;4.88;100.00
20119;BME280;10220;42.716;23.306;2023-01-10T09:01:17;94252.06;;;4.89;100.00
20119;BME280;10220;42.716;23.306;2023-01-10T09:03:43;94222.81;;;4.77;100.00
20119;BME280;10220;42.716;23.306;2023-01-10T09:06:09;94250.13;;;5.04;100.00
20119;BME280;10220;42.716;23.306;2023-01-10T09:08:35;94228.63;;;4.98;100.00
20119;BME280;10220;42.716;23.306;2023-01-10T09:11:01;94234.41;;;5.13;100.00
20119;BME280;10220;42.716;23.306;2023-01-10T09:13:27;94223.75;;;5.16;100.00
20119;BME280;10220;42.716;23.306;2023-01-10T09:15:53;94241.97;;;5.34;100.00
20119;BME280;10220;42.716;23.306;2023-01-10T09:18:19;94241.16;;;5.40;100.00
20119;BME280;10220;42.716;23.306;2023-01-10T09:20:44;94232.47;;;5.28;100.00
20119;BME280;10220;42.716;23.306;2023-01-10T09:23:13;94243.38;;;5.43;100.00
20119;BME280;10220;42.716;23.306;2023-01-10T09:25:42;94217.47;;;5.31;100.00
20119;BME280;10220;42.716;23.306;2023-01-10T09:28:08;94239.81;;;5.50;100.00
20119;BME280;10220;42.716;23.306;2023-01-10T09:30:34;94231.91;;;5.58;100.00
20119;BME280;10220;42.716;23.306;2023-01-10T09:32:59;94223.44;;;5.64;100.00
20119;BME280;10220;42.716;23.306;2023-01-10T09:35:27;94239.88;;;5.76;100.00
20119;BME280;10220;42.716;23.306;2023-01-10T09:37:54;94233.94;;;5.82;100.00
20119;BME280;10220;42.716;23.306;2023-01-10T09:40:36;94225.63;;;5.80;100.00
20119;BME280;10220;42.716;23.306;2023-01-10T09:46:15;94203.28;;;6.06;100.00
20119;BME280;10220;42.716;23.306;2023-01-10T09:51:39;94190.84;;;6.10;100.00
20119;BME280;10220;42.716;23.306;2023-01-10T09:54:25;94180.16;;;6.13;100.00
20119;BME280;10220;42.716;23.306;2023-01-10T09:56:51;94200.16;;;5.79;100.00
20119;BME280;10220;42.716;23.306;2023-01-10T09:59:22;94170.88;;;5.47;100.00
20119;BME280;10220;42.716;23.306;2023-01-10T10:01:54;94197.53;;;5.46;100.00
20119;BME280;10220;42.716;23.306;2023-01-10T10:04:31;94192.78;;;5.43;100.00
20119;BME280;10220;42.716;23.306;2023-01-10T10:06:59;94175.03;;;5.48;100.00
20119;BME280;10220;42.716;23.306;2023-01-10T10:09:27;94173.22;;;5.36;100.00
20119;BME280;10220;42.716;23.306;2023-01-10T10:20:18;94175.81;;;5.75;100.00
20119;BME280;10220;42.716;23.306;2023-01-10T10:34:17;94181.13;;;5.34;100.00
20119;BME280;10220;42.716;23.306;2023-01-10T10:36:52;94171.06;;;5.26;100.00
20119;BME280;10220;42.716;23.306;2023-01-10T10:39:24;94162.94;;;5.29;100.00
20119;BME280;10220;42.716;23.306;2023-01-10T10:41:54;94164.13;;;5.21;100.00
20119;BME280;10220;42.716;23.306;2023-01-10T10:44:36;94144.19;;;5.16;100.00
20119;BME280;10220;42.716;23.306;2023-01-10T10:47:12;94162.38;;;5.34;100.00
20119;BME280;10220;42.716;23.306;2023-01-10T10:49:56;94139.09;;;5.55;100.00
20119;BME280;10220;42.716;23.306;2023-01-10T10:52:26;94110.03;;;5.54;100.00
20119;BME280;10220;42.716;23.306;2023-01-10T10:54:55;94131.94;;;5.70;100.00
20119;BME280;10220;42.716;23.306;2023-01-10T10:57:23;94120.28;;;5.74;100.00
20119;BME280;10220;42.716;23.306;2023-01-10T10:59:50;94114.78;;;5.70;100.00
20119;BME280;10220;42.716;23.306;2023-01-10T11:02:20;94136.88;;;5.65;100.00
20119;BME280;10220;42.716;23.306;2023-01-10T11:04:48;94152.13;;;5.47;100.00
20119;BME280;10220;42.716;23.306;2023-01-10T11:07:16;94154.50;;;5.42;100.00
20119;BME280;10220;42.716;23.306;2023-01-10T11:09:42;94144.41;;;5.40;100.00
20119;BME280;10220;42.716;23.306;2023-01-10T11:12:27;94134.16;;;5.27;100.00
20119;BME280;10220;42.716;23.306;2023-01-10T11:14:54;94128.19;;;5.21;100.00
20119;BME280;10220;42.716;23.306;2023-01-10T11:17:24;94111.59;;;5.10;100.00
20119;BME280;10220;42.716;23.306;2023-01-10T11:20:05;94114.78;;;5.25;100.00
20119;BME280;10220;42.716;23.306;2023-01-10T11:22:43;94119.13;;;5.18;100.00
20119;BME280;10220;42.716;23.306;2023-01-10T11:25:15;94122.28;;;5.20;100.00
20119;BME280;10220;42.716;23.306;2023-01-10T11:27:46;94122.69;;;5.30;100.00
20119;BME280;10220;42.716;23.306;2023-01-10T11:30:34;94116.38;;;5.32;100.00
20119;BME280;10220;42.716;23.306;2023-01-10T11:33:03;94127.63;;;5.31;100.00
20119;BME280;10220;42.716;23.306;2023-01-10T11:35:36;94125.28;;;5.49;100.00
20119;BME280;10220;42.716;23.306;2023-01-10T11:43:24;94119.31;;;5.55;100.00
20119;BME280;10220;42.716;23.306;2023-01-10T11:46:21;94115.38;;;5.53;100.00
20119;BME280;10220;42.716;23.306;2023-01-10T11:51:25;94108.66;;;5.58;100.00
20119;BME280;10220;42.716;23.306;2023-01-10T11:53:57;94116.97;;;5.60;100.00
20119;BME280;10220;42.716;23.306;2023-01-10T11:56:26;94107.47;;;5.41;100.00
20119;BME280;10220;42.716;23.306;2023-01-10T11:58:54;94111.03;;;5.47;100.00
20119;BME280;10220;42.716;23.306;2023-01-10T12:04:03;94055.75;;;5.12;100.00
20119;BME280;10220;42.716;23.306;2023-01-10T12:06:29;94107.88;;;5.45;100.00
20119;BME280;10220;42.716;23.306;2023-01-10T12:08:56;94060.28;;;5.42;100.00
20119;BME280;10220;42.716;23.306;2023-01-10T12:11:30;94099.59;;;5.62;100.00
20119;BME280;10220;42.716;23.306;2023-01-10T12:13:58;94091.69;;;5.57;100.00
20119;BME280;10220;42.716;23.306;2023-01-10T12:16:28;94093.63;;;5.68;100.00
20119;BME280;10220;42.716;23.306;2023-01-10T12:18:58;94092.25;;;5.66;100.00
20119;BME280;10220;42.716;23.306;2023-01-10T12:21:38;94106.47;;;5.55;100.00
20119;BME280;10220;42.716;23.306;2023-01-10T12:24:30;94099.97;;;5.59;100.00
20119;BME280;10220;42.716;23.306;2023-01-10T12:26:54;94111.81;;;5.54;100.00
20119;BME280;10220;42.716;23.306;2023-01-10T12:29:26;94114.59;;;5.78;100.00
20119;BME280;10220;42.716;23.306;2023-01-10T12:31:54;94107.88;;;5.77;100.00
20119;BME280;10220;42.716;23.306;2023-01-10T12:34:24;94119.31;;;5.62;100.00
20119;BME280;10220;42.716;23.306;2023-01-10T12:39:26;94111.22;;;5.78;100.00
20119;BME280;10220;42.716;23.306;2023-01-10T12:42:10;94112.97;;;5.96;100.00
20119;BME280;10220;42.716;23.306;2023-01-10T12:45:32;94088.31;;;5.76;100.00
20119;BME280;10220;42.716;23.306;2023-01-10T12:50:38;94087.72;;;5.81;100.00
20119;BME280;10220;42.716;23.306;2023-01-10T12:55:41;94091.25;;;5.86;100.00
20119;BME280;10220;42.716;23.306;2023-01-10T12:58:20;94102.53;;;5.59;100.00
20119;BME280;10220;42.716;23.306;2023-01-10T13:00:52;94109.25;;;5.73;100.00
20119;BME280;10220;42.716;23.306;2023-01-10T13:03:20;94092.25;;;5.59;100.00
20119;BME280;10220;42.716;23.306;2023-01-10T13:05:47;94088.31;;;5.57;100.00
20119;BME280;10220;42.716;23.306;2023-01-10T13:08:16;94105.72;;;5.81;100.00
20119;BME280;10220;42.716;23.306;2023-01-10T13:10:45;94094.03;;;5.72;100.00
20119;BME280;10220;42.716;23.306;2023-01-10T13:13:36;94092.84;;;5.68;100.00
20119;BME280;10220;42.716;23.306;2023-01-10T13:16:21;94105.31;;;5.77;100.00
20119;BME280;10220;42.716;23.306;2023-01-10T13:21:32;94108.25;;;5.68;100.00
20119;BME280;10220;42.716;23.306;2023-01-10T13:24:03;94067.56;;;5.58;100.00
20119;BME280;10220;42.716;23.306;2023-01-10T13:29:19;94123.81;;;6.05;100.00
20119;BME280;10220;42.716;23.306;2023-01-10T13:31:46;94109.03;;;5.94;100.00
20119;BME280;10220;42.716;23.306;2023-01-10T13:34:14;94113.78;;;5.90;100.00
20119;BME280;10220;42.716;23.306;2023-01-10T13:36:50;94119.34;;;5.81;100.00
20119;BME280;10220;42.716;23.306;2023-01-10T13:53:35;94114.78;;;5.57;100.00
20119;BME280;10220;42.716;23.306;2023-01-10T14:06:09;94129.59;;;5.81;100.00
20119;BME280;10220;42.716;23.306;2023-01-10T14:08:37;94127.03;;;5.68;100.00
20119;BME280;10220;42.716;23.306;2023-01-10T14:11:12;94124.28;;;5.76;100.00
20119;BME280;10220;42.716;23.306;2023-01-10T14:13:50;94125.06;;;5.70;100.00
20119;BME280;10220;42.716;23.306;2023-01-10T14:18:51;94122.50;;;5.70;100.00
20119;BME280;10220;42.716;23.306;2023-01-10T14:21:23;94125.06;;;5.70;100.00
20119;BME280;10220;42.716;23.306;2023-01-10T14:23:51;94130.56;;;5.61;100.00
20119;BME280;10220;42.716;23.306;2023-01-10T14:26:33;94132.78;;;5.57;100.00
20119;BME280;10220;42.716;23.306;2023-01-10T14:29:04;94122.50;;;5.44;100.00
20119;BME280;10220;42.716;23.306;2023-01-10T14:31:31;94151.72;;;5.50;100.00
20119;BME280;10220;42.716;23.306;2023-01-10T14:34:01;94149.72;;;5.58;100.00
20119;BME280;10220;42.716;23.306;2023-01-10T14:36:33;94124.88;;;5.46;100.00
20119;BME280;10220;42.716;23.306;2023-01-10T14:39:04;94125.84;;;5.45;100.00
20119;BME280;10220;42.716;23.306;2023-01-10T14:41:36;94131.78;;;5.20;100.00
20119;BME280;10220;42.716;23.306;2023-01-10T14:44:16;94139.28;;;5.34;100.00
20119;BME280;10220;42.716;23.306;2023-01-10T14:46:46;94146.38;;;5.32;100.00
20119;BME280;10220;42.716;23.306;2023-01-10T14:49:47;94146.38;;;5.25;100.00
20119;BME280;10220;42.716;23.306;2023-01-10T14:52:24;94150.94;;;5.30;100.00
20119;BME280;10220;42.716;23.306;2023-01-10T14:57:28;94155.25;;;5.29;100.00
20119;BME280;10220;42.716;23.306;2023-01-10T15:00:14;94159.63;;;5.35;100.00